Time;durP1;ratioP1;P1;durP2;ratioP2;P2;SDS_P1;SDS_P2;PMS_P1;PMS_P2;Temp;Humidity;BMP_temperature;BMP_pressure;BME280_temperature;BME280_humidity;BME280_pressure;Samples;Min_cycle;Max_cycle;Signal;HPM_P1;HPM_P2
2022/09/26 00:01:30;;;;;;;17.40;15.50;;;;;;;17.44;65.39;98928.59;4497838;31;34186;-63
2022/09/26 00:04:01;;;;;;;18.15;15.65;;;;;;;17.34;65.60;98917.16;4497960;31;33856;-63
2022/09/26 00:06:29;;;;;;;17.23;15.25;;;;;;;17.34;65.71;98921.75;4493769;31;33361;-64
2022/09/26 00:08:56;;;;;;;16.48;14.23;;;;;;;17.28;65.90;98922.44;4490375;31;34002;-64
2022/09/26 00:11:26;;;;;;;20.08;15.68;;;;;;;17.36;65.62;98920.53;4495989;31;34068;-63
2022/09/26 00:13:57;;;;;;;17.42;13.30;;;;;;;17.38;65.34;98915.78;4487506;31;33859;-63
2022/09/26 00:16:25;;;;;;;16.90;11.65;;;;;;;17.43;65.35;98921.53;4492190;31;34526;-63
2022/09/26 00:18:55;;;;;;;19.02;14.32;;;;;;;17.64;64.74;98910.03;4496401;31;33353;-64
2022/09/26 00:21:25;;;;;;;18.00;15.77;;;;;;;17.64;64.68;98920.84;4499293;31;33308;-64
2022/09/26 00:23:54;;;;;;;18.58;15.45;;;;;;;17.56;64.81;98920.06;4496324;31;35372;-64
2022/09/26 00:26:23;;;;;;;18.60;16.02;;;;;;;17.68;64.48;98919.47;4494399;31;32004;-64
2022/09/26 00:28:51;;;;;;;16.92;14.25;;;;;;;17.66;64.58;98912.56;4496795;31;33888;-63
2022/09/26 00:31:30;;;;;;;19.05;14.60;;;;;;;17.60;64.83;98903.31;4494430;31;33974;-63
2022/09/26 00:33:58;;;;;;;18.05;14.95;;;;;;;17.64;64.79;98898.38;4495739;31;33593;-63
2022/09/26 00:36:27;;;;;;;20.67;15.43;;;;;;;17.75;64.18;98892.50;4490505;31;31653;-64
2022/09/26 00:39:06;;;;;;;19.08;15.73;;;;;;;17.17;66.04;98883.13;4496744;31;34881;-63
2022/09/26 00:41:35;;;;;;;18.85;14.65;;;;;;;17.35;65.40;98888.25;4496597;31;34135;-64
2022/09/26 00:44:41;;;;;;;18.75;16.00;;;;;;;17.31;65.46;98890.47;4494845;31;33636;-64
2022/09/26 00:47:36;;;;;;;15.30;10.30;;;;;;;17.38;65.51;98894.16;4493365;31;34362;-65
2022/09/26 00:50:21;;;;;;;14.23;9.77;;;;;;;17.57;64.96;98900.12;4492139;31;33850;-64
2022/09/26 00:53:08;;;;;;;15.93;13.60;;;;;;;17.67;64.53;98885.31;4496008;31;35169;-64
2022/09/26 00:55:38;;;;;;;20.10;15.15;;;;;;;17.61;64.68;98877.09;4481917;31;34105;-65
2022/09/26 00:58:22;;;;;;;17.73;13.65;;;;;;;17.54;64.77;98874.25;4483270;31;33491;-65
2022/09/26 01:00:50;;;;;;;18.55;14.80;;;;;;;17.49;65.03;98867.69;4495587;31;34964;-64
2022/09/26 01:03:19;;;;;;;19.12;15.50;;;;;;;17.43;65.27;98872.81;4489903;31;35008;-65
2022/09/26 01:05:46;;;;;;;18.37;15.27;;;;;;;17.55;65.01;98870.53;4489556;31;32710;-64
2022/09/26 01:08:17;;;;;;;17.85;15.02;;;;;;;17.57;64.88;98865.78;4499100;31;33253;-63
2022/09/26 01:10:45;;;;;;;18.15;15.20;;;;;;;17.40;65.32;98861.53;4484736;31;33911;-62
2022/09/26 01:13:13;;;;;;;17.33;13.05;;;;;;;17.49;64.89;98865.81;4497389;31;34262;-63
2022/09/26 01:15:40;;;;;;;16.10;12.50;;;;;;;17.54;64.88;98862.59;4486510;31;33759;-63
2022/09/26 01:18:08;;;;;;;18.95;15.38;;;;;;;17.55;64.84;98861.56;4492310;31;32155;-63
2022/09/26 01:20:54;;;;;;;17.00;14.23;;;;;;;17.28;65.55;98854.84;4495585;31;33777;-63
2022/09/26 01:23:48;;;;;;;16.95;13.82;;;;;;;17.46;65.30;98856.22;4496568;31;33959;-63
2022/09/26 01:26:24;;;;;;;17.05;13.50;;;;;;;17.51;65.15;98847.56;4491408;31;34918;-63
2022/09/26 01:29:30;;;;;;;19.15;15.13;;;;;;;17.54;65.04;98843.66;4492104;31;33536;-62
2022/09/26 01:35:02;;;;;;;21.67;15.90;;;;;;;17.42;65.28;98843.22;4496886;31;34074;-63
2022/09/26 01:37:59;;;;;;;20.10;14.60;;;;;;;17.45;65.27;98843.72;4497710;31;33271;-62
2022/09/26 01:40:34;;;;;;;19.40;16.27;;;;;;;17.44;65.26;98838.50;4495948;31;33489;-63
2022/09/26 01:43:01;;;;;;;20.85;16.27;;;;;;;17.40;65.39;98837.19;4485919;31;34670;-62
2022/09/26 01:45:43;;;;;;;19.92;13.13;;;;;;;17.27;65.81;98839.62;4494930;31;34942;-62
2022/09/26 01:48:17;;;;;;;16.58;13.80;;;;;;;17.26;66.05;98840.66;4493434;31;34969;-62
2022/09/26 01:50:50;;;;;;;18.90;16.85;;;;;;;17.43;65.61;98836.78;4494674;31;33482;-62
2022/09/26 01:53:17;;;;;;;20.92;16.37;;;;;;;17.38;65.75;98845.47;4483805;31;32185;-62
2022/09/26 01:55:50;;;;;;;22.23;17.83;;;;;;;17.59;65.15;98843.94;4496271;31;33982;-62
2022/09/26 01:58:28;;;;;;;21.15;17.60;;;;;;;17.34;65.64;98811.69;4486524;31;33491;-62
2022/09/26 02:01:00;;;;;;;23.08;17.33;;;;;;;17.20;66.25;98817.88;4497825;31;34935;-62
2022/09/26 02:03:30;;;;;;;20.10;17.65;;;;;;;17.07;66.57;98812.22;4491513;31;33817;-62
2022/09/26 02:06:03;;;;;;;20.65;17.70;;;;;;;16.77;67.83;98812.87;4498538;31;33293;-62
2022/09/26 02:08:43;;;;;;;13.80;10.27;;;;;;;16.75;67.95;98817.63;4488433;31;33789;-62
2022/09/26 02:11:16;;;;;;;16.73;12.18;;;;;;;16.72;68.04;98819.81;4492830;31;34275;-62
2022/09/26 02:14:01;;;;;;;20.50;16.25;;;;;;;16.65;68.60;98818.84;4481801;31;32131;-62
2022/09/26 02:16:39;;;;;;;18.20;15.17;;;;;;;16.80;68.27;98816.28;4486944;31;33686;-62
2022/09/26 02:19:26;;;;;;;17.87;13.07;;;;;;;16.94;67.74;98805.53;4485001;31;33715;-62
2022/09/26 02:21:55;;;;;;;20.77;17.85;;;;;;;17.09;67.23;98816.44;4483308;31;33440;-62
2022/09/26 02:24:23;;;;;;;19.85;16.73;;;;;;;17.12;67.10;98826.03;4491292;31;34004;-62
2022/09/26 02:26:51;;;;;;;22.73;18.92;;;;;;;17.19;66.87;98829.72;4492916;31;34853;-62
2022/09/26 02:29:19;;;;;;;21.37;17.17;;;;;;;17.23;66.76;98841.84;4495745;31;34769;-62
2022/09/26 02:31:52;;;;;;;26.15;19.87;;;;;;;17.32;66.60;98846.19;4488275;31;33195;-62
2022/09/26 02:34:20;;;;;;;23.33;17.65;;;;;;;17.18;66.81;98844.25;4486758;31;33771;-63
2022/09/26 02:36:50;;;;;;;22.92;17.92;;;;;;;17.33;66.41;98842.44;4494388;31;33984;-62
2022/09/26 02:39:17;;;;;;;24.87;19.33;;;;;;;17.28;66.53;98830.50;4480403;31;33580;-62
2022/09/26 02:42:08;;;;;;;21.23;18.20;;;;;;;17.43;66.04;98818.72;4496303;31;34766;-62
2022/09/26 02:44:59;;;;;;;23.02;19.45;;;;;;;17.14;66.60;98805.06;4484442;31;33603;-62
2022/09/26 02:47:38;;;;;;;20.73;18.60;;;;;;;17.21;66.60;98809.59;4485882;31;32740;-62
2022/09/26 02:50:18;;;;;;;21.65;17.45;;;;;;;17.28;66.37;98811.56;4493981;31;33478;-62
2022/09/26 02:52:59;;;;;;;22.37;15.98;;;;;;;17.28;66.44;98803.47;4492202;31;33185;-62
2022/09/26 02:55:53;;;;;;;24.55;20.25;;;;;;;17.38;66.07;98810.28;4495188;31;33766;-62
2022/09/26 02:58:34;;;;;;;21.62;17.73;;;;;;;17.40;65.92;98820.94;4487283;31;32864;-62
2022/09/26 03:01:13;;;;;;;19.17;13.10;;;;;;;17.43;65.75;98818.72;4493379;31;34027;-62
2022/09/26 03:03:52;;;;;;;20.98;17.73;;;;;;;17.64;65.09;98809.06;4495282;31;33598;-62
2022/09/26 03:06:27;;;;;;;21.40;17.98;;;;;;;17.32;66.04;98805.59;4487806;31;33940;-63
2022/09/26 03:08:55;;;;;;;24.63;19.50;;;;;;;17.41;65.79;98795.56;4504611;31;32809;-63
2022/09/26 03:11:25;;;;;;;21.65;17.15;;;;;;;17.36;65.96;98797.97;4495563;31;32634;-63
2022/09/26 03:13:55;;;;;;;20.62;17.17;;;;;;;17.52;65.42;98799.69;4494057;31;32058;-63
2022/09/26 03:16:26;;;;;;;19.95;17.15;;;;;;;17.32;65.83;98793.94;4498318;31;33461;-63
2022/09/26 03:19:05;;;;;;;19.20;16.37;;;;;;;17.46;65.39;98793.16;4498494;31;34867;-64
2022/09/26 03:21:33;;;;;;;20.33;18.05;;;;;;;17.59;64.93;98795.25;4494451;31;34940;-63
2022/09/26 03:24:04;;;;;;;19.20;15.00;;;;;;;17.37;65.34;98794.28;4494655;31;33275;-63
2022/09/26 03:26:33;;;;;;;19.83;16.50;;;;;;;17.52;64.86;98784.31;4489177;31;32584;-63
2022/09/26 03:29:02;;;;;;;21.45;18.42;;;;;;;17.26;65.58;98779.28;4481932;31;34560;-63
2022/09/26 03:31:30;;;;;;;25.37;18.77;;;;;;;17.02;66.50;98774.06;4496415;31;34344;-63
2022/09/26 03:33:58;;;;;;;21.98;19.08;;;;;;;16.88;66.87;98759.44;4498952;31;33561;-63
2022/09/26 03:36:27;;;;;;;19.40;16.00;;;;;;;16.61;67.91;98769.72;4498246;31;33301;-62
2022/09/26 03:38:54;;;;;;;18.62;13.62;;;;;;;16.50;68.49;98752.06;4496104;31;34979;-62
2022/09/26 03:41:24;;;;;;;16.52;12.55;;;;;;;16.37;68.86;98762.59;4489060;31;33589;-62
2022/09/26 03:43:55;;;;;;;20.12;18.05;;;;;;;16.63;68.26;98756.88;4488550;31;32152;-62
2022/09/26 03:46:23;;;;;;;23.60;18.70;;;;;;;16.73;67.74;98756.66;4496737;31;33583;-62
2022/09/26 03:48:51;;;;;;;16.10;11.30;;;;;;;16.41;68.86;98753.13;4495372;31;33948;-62
2022/09/26 03:51:19;;;;;;;20.20;16.35;;;;;;;16.84;67.61;98739.22;4494285;31;35248;-61
2022/09/26 03:53:47;;;;;;;19.73;14.25;;;;;;;16.93;67.22;98741.69;4487414;31;32823;-62
2022/09/26 03:56:17;;;;;;;20.73;16.73;;;;;;;17.14;66.81;98734.75;4495671;31;34965;-61
2022/09/26 03:58:45;;;;;;;19.75;16.30;;;;;;;17.23;66.37;98731.81;4498820;31;33729;-62
2022/09/26 04:01:18;;;;;;;18.75;14.45;;;;;;;17.22;66.17;98721.19;4483571;31;33573;-63
2022/09/26 04:03:47;;;;;;;20.77;16.02;;;;;;;17.25;66.01;98733.50;4487651;31;33643;-63
2022/09/26 04:06:19;;;;;;;20.33;16.52;;;;;;;17.25;66.01;98715.41;4497962;31;33646;-63
2022/09/26 04:08:49;;;;;;;17.37;15.43;;;;;;;17.13;66.32;98723.13;4496059;31;34574;-63
2022/09/26 04:11:19;;;;;;;22.23;18.58;;;;;;;17.30;65.79;98714.84;4494642;31;32434;-62
2022/09/26 04:13:48;;;;;;;21.87;18.30;;;;;;;17.25;65.96;98720.81;4494281;31;33631;-62
2022/09/26 04:16:22;;;;;;;22.10;18.87;;;;;;;17.35;65.63;98713.28;4491453;31;33856;-62
2022/09/26 04:18:58;;;;;;;23.42;18.70;;;;;;;17.22;65.71;98708.50;4492239;31;33589;-62
2022/09/26 04:21:25;;;;;;;23.40;18.98;;;;;;;17.21;65.75;98712.25;4488311;31;34044;-62
2022/09/26 04:23:54;;;;;;;23.73;20.17;;;;;;;17.12;66.00;98721.44;4485036;31;33236;-62
2022/09/26 04:26:22;;;;;;;26.17;20.55;;;;;;;17.14;65.99;98715.84;4496550;31;33793;-62
2022/09/26 04:28:53;;;;;;;24.73;21.05;;;;;;;17.28;65.41;98708.81;4496800;31;34750;-62
2022/09/26 04:31:23;;;;;;;22.65;20.08;;;;;;;17.13;65.93;98714.16;4489872;31;32519;-62
2022/09/26 04:33:53;;;;;;;24.40;18.67;;;;;;;17.21;65.75;98712.25;4489036;31;33562;-62
2022/09/26 04:36:22;;;;;;;25.92;21.33;;;;;;;17.38;65.22;98718.34;4485165;31;32584;-62
2022/09/26 04:38:50;;;;;;;23.73;19.80;;;;;;;17.35;65.14;98707.88;4494804;31;33914;-63
2022/09/26 04:41:20;;;;;;;23.00;20.50;;;;;;;17.44;64.96;98705.94;4498209;31;33920;-61
2022/09/26 04:43:48;;;;;;;24.85;20.83;;;;;;;17.40;65.24;98710.06;4493993;31;33320;-62
2022/09/26 04:46:19;;;;;;;23.65;20.20;;;;;;;17.49;64.86;98706.22;4496256;31;32885;-63
2022/09/26 04:48:55;;;;;;;26.45;21.02;;;;;;;17.34;65.32;98711.63;4497692;31;34022;-65
2022/09/26 04:51:25;;;;;;;25.08;19.87;;;;;;;17.50;64.89;98713.34;4495768;31;32298;-65
2022/09/26 04:53:52;;;;;;;24.33;20.12;;;;;;;17.51;64.88;98727.69;4496904;31;33484;-64
2022/09/26 04:56:22;;;;;;;24.40;20.12;;;;;;;17.53;64.84;98731.03;4488457;31;33793;-64
2022/09/26 04:58:50;;;;;;;23.70;21.02;;;;;;;17.47;64.96;98729.94;4492328;31;34604;-64
2022/09/26 05:01:19;;;;;;;24.45;20.73;;;;;;;17.50;65.04;98718.75;4492022;31;34239;-64
2022/09/26 05:03:49;;;;;;;25.10;20.85;;;;;;;17.55;64.87;98720.87;4492281;31;32628;-64
2022/09/26 05:06:17;;;;;;;23.80;20.17;;;;;;;17.64;64.62;98722.50;4491433;31;33834;-64
2022/09/26 05:08:48;;;;;;;26.02;21.10;;;;;;;17.64;64.67;98720.63;4490291;31;32682;-64
2022/09/26 05:11:18;;;;;;;25.73;21.62;;;;;;;17.59;64.69;98724.91;4494348;31;33962;-64
2022/09/26 05:13:49;;;;;;;25.85;21.27;;;;;;;17.65;64.57;98727.69;4496901;31;33524;-65
2022/09/26 05:16:20;;;;;;;24.23;21.62;;;;;;;17.56;64.72;98720.72;4498047;31;33820;-64
2022/09/26 05:18:50;;;;;;;21.55;18.83;;;;;;;17.61;64.72;98726.41;4492141;31;33169;-64
2022/09/26 05:21:18;;;;;;;27.80;22.70;;;;;;;17.53;64.86;98720.22;4498742;31;33969;-64
2022/09/26 05:26:39;;;;;;;24.30;21.55;;;;;;;17.68;64.50;98723.78;4495949;31;35072;-64
2022/09/26 05:29:07;;;;;;;27.13;23.87;;;;;;;17.72;64.52;98714.28;4482532;31;32875;-65
2022/09/26 05:31:38;;;;;;;26.55;22.20;;;;;;;17.72;64.45;98708.88;4494358;31;33925;-65
2022/09/26 05:34:09;;;;;;;27.52;22.50;;;;;;;17.77;64.37;98705.63;4494420;31;34394;-64
2022/09/26 05:36:42;;;;;;;25.70;21.23;;;;;;;17.73;64.54;98713.25;4488375;31;33872;-64
2022/09/26 05:40:55;;;;;;;25.15;19.33;;;;;;;17.84;64.17;98720.94;4492760;31;32733;-64
2022/09/26 05:41:57;;;;;;;28.27;23.23;;;;;;;17.85;64.17;98711.81;4495936;31;34917;-64
2022/09/26 05:44:26;;;;;;;30.10;24.30;;;;;;;17.82;64.10;98716.75;4490158;31;33414;-64
2022/09/26 05:46:56;;;;;;;33.45;25.12;;;;;;;17.84;64.08;98728.22;4494204;31;32107;-64
2022/09/26 05:49:25;;;;;;;30.88;24.85;;;;;;;17.83;64.04;98730.09;4491241;31;33959;-63
2022/09/26 05:51:53;;;;;;;29.15;22.80;;;;;;;17.69;64.48;98733.59;4492956;31;32568;-63
2022/09/26 05:54:21;;;;;;;28.12;22.23;;;;;;;17.78;64.41;98731.66;4491718;31;33438;-63
2022/09/26 05:56:49;;;;;;;27.05;24.12;;;;;;;17.77;64.28;98727.28;4496576;31;33971;-64
2022/09/26 05:59:18;;;;;;;27.42;21.65;;;;;;;17.78;64.54;98723.56;4493014;31;32555;-64
2022/09/26 06:01:57;;;;;;;29.27;23.98;;;;;;;17.77;64.62;98716.47;4494180;31;32552;-64
2022/09/26 06:04:25;;;;;;;30.15;24.75;;;;;;;17.83;64.31;98716.56;4485383;31;32403;-62
2022/09/26 06:06:54;;;;;;;31.87;25.73;;;;;;;17.91;64.09;98699.38;4491672;31;32247;-62
2022/09/26 06:09:22;;;;;;;30.17;21.58;;;;;;;17.75;64.37;98688.72;4493294;31;33921;-63
2022/09/26 06:11:50;;;;;;;33.03;20.98;;;;;;;17.72;64.77;98691.78;4497618;31;34718;-63
2022/09/26 06:14:18;;;;;;;31.90;24.48;;;;;;;17.64;65.01;98692.72;4493035;31;32008;-63
2022/09/26 06:16:45;;;;;;;29.98;23.90;;;;;;;17.63;64.89;98697.31;4494846;31;34014;-63
2022/09/26 06:19:13;;;;;;;32.55;25.08;;;;;;;17.78;64.55;98688.38;4484422;31;32677;-63
2022/09/26 06:21:46;;;;;;;34.35;25.40;;;;;;;17.84;64.34;98696.56;4489303;31;33606;-63
2022/09/26 06:24:15;;;;;;;32.50;25.15;;;;;;;17.76;64.73;98690.41;4491999;31;33603;-62
2022/09/26 06:26:43;;;;;;;28.20;22.92;;;;;;;17.78;64.83;98689.19;4490825;31;33759;-63
2022/09/26 06:29:10;;;;;;;31.83;24.95;;;;;;;17.93;64.57;98684.63;4497061;31;35182;-63
2022/09/26 06:31:39;;;;;;;31.92;26.60;;;;;;;17.79;65.02;98692.78;4491458;31;34701;-62
2022/09/26 06:34:08;;;;;;;31.35;25.25;;;;;;;17.88;64.70;98697.03;4495419;31;33201;-62
2022/09/26 06:36:37;;;;;;;30.05;21.45;;;;;;;17.73;65.20;98693.47;4485182;31;32394;-63
2022/09/26 06:39:04;;;;;;;32.63;25.05;;;;;;;17.90;64.85;98703.94;4495034;31;34204;-62
2022/09/26 06:41:34;;;;;;;33.05;25.50;;;;;;;17.91;64.67;98708.38;4495368;31;33453;-62
2022/09/26 06:44:05;;;;;;;31.60;24.35;;;;;;;17.88;64.77;98711.44;4498199;31;34432;-62
2022/09/26 06:46:37;;;;;;;29.80;22.95;;;;;;;17.83;65.16;98710.31;4488481;31;33168;-64
2022/09/26 06:49:05;;;;;;;31.75;25.37;;;;;;;17.78;65.56;98713.56;4493810;31;34363;-64
2022/09/26 06:51:37;;;;;;;32.53;25.40;;;;;;;17.89;65.36;98709.56;4494826;31;33272;-63
2022/09/26 06:54:04;;;;;;;30.00;23.90;;;;;;;18.00;64.99;98700.97;4497118;31;32759;-63
2022/09/26 06:56:32;;;;;;;30.90;23.00;;;;;;;17.93;65.16;98692.75;4494119;31;33925;-63
2022/09/26 06:59:00;;;;;;;27.42;22.23;;;;;;;17.90;65.25;98701.25;4497099;31;33712;-63
2022/09/26 07:01:28;;;;;;;29.08;22.83;;;;;;;18.00;65.19;98708.25;4490480;31;33265;-64
2022/09/26 07:03:56;;;;;;;29.27;22.73;;;;;;;17.97;65.43;98709.47;4496855;31;34404;-64
2022/09/26 07:06:25;;;;;;;30.50;22.65;;;;;;;18.03;65.35;98699.75;4492614;31;34918;-63
2022/09/26 07:08:54;;;;;;;26.17;20.52;;;;;;;18.11;65.29;98705.09;4497791;31;35075;-64
2022/09/26 07:11:45;;;;;;;24.67;20.12;;;;;;;18.07;65.35;98696.50;4493022;31;33878;-63
2022/09/26 07:14:33;;;;;;;23.70;18.73;;;;;;;18.11;65.35;98697.78;4496679;31;33395;-63
2022/09/26 07:17:01;;;;;;;22.33;17.37;;;;;;;17.96;66.20;98698.81;4495458;31;33919;-63
2022/09/26 07:19:28;;;;;;;19.87;15.93;;;;;;;18.12;65.87;98698.63;4495164;31;32828;-63
2022/09/26 07:21:58;;;;;;;23.67;18.45;;;;;;;18.21;65.58;98693.97;4494197;31;32296;-64
2022/09/26 07:24:26;;;;;;;22.00;19.20;;;;;;;18.23;65.56;98697.28;4496919;31;32743;-63
2022/09/26 07:26:54;;;;;;;24.05;18.85;;;;;;;18.12;66.10;98702.16;4497884;31;32387;-64
2022/09/26 07:29:21;;;;;;;26.35;19.17;;;;;;;18.15;66.22;98704.50;4493708;31;32598;-64
2022/09/26 07:31:50;;;;;;;21.40;17.70;;;;;;;18.08;66.69;98698.16;4496543;31;32677;-64
2022/09/26 07:34:23;;;;;;;21.65;18.33;;;;;;;18.27;66.17;98717.59;4496435;31;34721;-64
2022/09/26 07:36:51;;;;;;;21.75;17.87;;;;;;;17.88;67.46;98722.28;4496302;31;34068;-64
2022/09/26 07:39:19;;;;;;;22.98;18.05;;;;;;;17.72;67.89;98718.84;4492440;31;33872;-64
2022/09/26 07:41:48;;;;;;;22.08;17.42;;;;;;;17.90;67.47;98712.06;4488510;31;33089;-64
2022/09/26 07:44:16;;;;;;;19.20;16.10;;;;;;;17.76;68.53;98722.88;4498233;31;33538;-64
2022/09/26 07:52:36;;;;;;;18.92;14.95;;;;;;;17.64;68.09;98738.72;4497195;31;32878;-63
2022/09/26 07:55:07;;;;;;;18.17;15.40;;;;;;;17.40;68.64;98737.94;4494319;31;32200;-64
2022/09/26 07:57:35;;;;;;;18.27;14.43;;;;;;;17.64;67.96;98744.97;4495621;31;35056;-63
2022/09/26 08:00:05;;;;;;;17.58;14.00;;;;;;;17.33;68.77;98739.66;4498002;31;33638;-64
2022/09/26 08:02:41;;;;;;;17.55;13.45;;;;;;;17.42;68.63;98741.28;4493600;31;33463;-63
2022/09/26 08:05:11;;;;;;;17.70;14.20;;;;;;;17.62;68.19;98740.75;4489061;31;33240;-64
2022/09/26 08:07:39;;;;;;;19.73;14.38;;;;;;;17.47;68.60;98740.75;4495193;31;34948;-64
2022/09/26 08:10:18;;;;;;;19.55;14.98;;;;;;;17.69;68.10;98733.59;4498002;31;33700;-65
2022/09/26 08:12:49;;;;;;;18.60;13.70;;;;;;;17.35;69.43;98732.22;4494299;31;33880;-65
2022/09/26 08:15:18;;;;;;;18.70;13.23;;;;;;;17.42;69.21;98733.16;4493937;31;33208;-64
2022/09/26 08:17:46;;;;;;;18.73;14.87;;;;;;;17.34;69.12;98733.25;4496181;31;33576;-64
2022/09/26 08:20:13;;;;;;;19.92;15.88;;;;;;;16.95;70.69;98733.38;4498558;31;34016;-64
2022/09/26 08:22:41;;;;;;;17.95;12.68;;;;;;;17.27;69.80;98743.13;4494970;31;33627;-64
2022/09/26 08:25:10;;;;;;;18.58;14.38;;;;;;;17.25;69.33;98745.16;4494515;31;32928;-64
2022/09/26 08:27:42;;;;;;;15.40;11.43;;;;;;;17.45;68.80;98740.09;4495243;31;33910;-64
2022/09/26 08:30:10;;;;;;;20.20;15.98;;;;;;;17.59;69.11;98739.28;4496532;31;33707;-64
2022/09/26 08:32:38;;;;;;;17.20;13.62;;;;;;;17.53;69.80;98733.75;4494635;31;34903;-64
2022/09/26 08:35:06;;;;;;;19.37;14.85;;;;;;;17.41;70.51;98745.03;4494221;31;33696;-65
2022/09/26 08:37:36;;;;;;;18.98;13.90;;;;;;;17.57;69.51;98743.19;4490327;31;32527;-65
2022/09/26 08:40:13;;;;;;;18.48;14.95;;;;;;;17.68;68.96;98753.56;4494315;31;33823;-66
2022/09/26 08:42:58;;;;;;;17.67;11.48;;;;;;;17.03;71.03;98748.72;4490711;31;33716;-67
2022/09/26 08:48:48;;;;;;;18.73;13.62;;;;;;;17.64;68.70;98750.37;4488987;31;33692;-67
2022/09/26 08:51:28;;;;;;;16.70;14.13;;;;;;;17.81;68.69;98750.25;4492399;31;34025;-66
2022/09/26 08:54:04;;;;;;;16.92;13.85;;;;;;;17.77;69.31;98744.37;4497660;31;33879;-66
2022/09/26 08:56:39;;;;;;;17.05;13.93;;;;;;;17.59;69.96;98739.28;4485782;31;34620;-65
2022/09/26 08:59:13;;;;;;;18.20;14.35;;;;;;;17.76;69.38;98748.06;4482851;31;33496;-64
2022/09/26 09:01:42;;;;;;;18.48;14.82;;;;;;;17.91;69.33;98739.97;4495536;31;33938;-65
2022/09/26 09:04:40;;;;;;;17.17;14.52;;;;;;;18.12;69.58;98744.66;4492651;31;33806;-65
2022/09/26 09:07:23;;;;;;;16.37;13.90;;;;;;;18.23;69.42;98749.59;4488962;31;33011;-65
2022/09/26 09:09:55;;;;;;;18.77;13.68;;;;;;;18.29;69.35;98754.25;4484265;31;32851;-65
2022/09/26 09:12:41;;;;;;;16.90;12.30;;;;;;;18.18;69.86;98757.47;4490651;31;35144;-65
2022/09/26 09:15:52;;;;;;;15.55;11.88;;;;;;;18.17;68.52;98750.37;4495213;31;33931;-65
2022/09/26 09:19:11;;;;;;;17.30;13.80;;;;;;;18.22;67.91;98747.09;4472028;31;33032;-65
2022/09/26 09:22:02;;;;;;;14.90;11.98;;;;;;;18.43;67.87;98749.88;4488666;31;32705;-65
2022/09/26 09:24:30;;;;;;;15.60;11.68;;;;;;;18.32;67.33;98750.34;4494304;31;33784;-65
2022/09/26 09:27:10;;;;;;;16.87;12.63;;;;;;;17.84;70.55;98744.47;4496977;31;34146;-65
2022/09/26 09:30:20;;;;;;;15.10;11.40;;;;;;;17.73;70.45;98745.75;4484106;31;33587;-65
2022/09/26 09:32:56;;;;;;;16.40;11.00;;;;;;;17.83;68.54;98743.63;4481335;31;31984;-65
2022/09/26 09:35:46;;;;;;;15.05;11.80;;;;;;;18.05;68.32;98738.31;4489577;31;34034;-66
2022/09/26 09:38:17;;;;;;;15.07;11.15;;;;;;;18.14;68.59;98734.50;4486748;31;33997;-66
2022/09/26 09:41:04;;;;;;;14.02;10.52;;;;;;;17.85;70.97;98735.34;4483513;31;33459;-65
2022/09/26 09:43:46;;;;;;;14.35;11.18;;;;;;;17.85;68.85;98733.47;4483002;31;34654;-65
2022/09/26 09:46:49;;;;;;;14.70;11.80;;;;;;;17.99;68.20;98725.53;4487653;31;34303;-66
2022/09/26 09:49:20;;;;;;;14.63;11.10;;;;;;;17.72;69.80;98729.66;4463425;31;32899;-65
2022/09/26 09:51:54;;;;;;;16.55;13.02;;;;;;;18.27;67.07;98717.59;4497678;31;33138;-66
2022/09/26 09:54:55;;;;;;;14.52;11.32;;;;;;;18.27;65.92;98714.88;4495795;31;32895;-66
2022/09/26 09:57:56;;;;;;;15.57;11.70;;;;;;;18.42;65.19;98707.53;4489082;31;35715;-65
2022/09/26 10:00:26;;;;;;;13.80;10.45;;;;;;;18.27;66.14;98712.16;4490040;31;32627;-65
2022/09/26 10:03:02;;;;;;;13.80;10.30;;;;;;;18.49;66.00;98715.75;4487046;31;33212;-65
2022/09/26 10:05:41;;;;;;;14.43;11.63;;;;;;;18.71;65.53;98716.62;4482183;31;33426;-65
2022/09/26 10:08:16;;;;;;;13.77;10.10;;;;;;;18.94;66.49;98714.63;4495443;31;34074;-65
2022/09/26 10:11:15;;;;;;;12.45;9.98;;;;;;;18.32;68.02;98710.53;4483657;31;33919;-65
2022/09/26 10:13:47;;;;;;;14.07;8.85;;;;;;;19.02;63.10;98708.22;4489128;31;31911;-63
2022/09/26 10:16:22;;;;;;;13.23;10.07;;;;;;;19.20;62.98;98707.75;4493703;31;32245;-63
2022/09/26 10:19:02;;;;;;;13.60;10.25;;;;;;;18.51;65.36;98702.84;4484606;31;33954;-65
2022/09/26 10:21:32;;;;;;;12.60;9.10;;;;;;;19.04;64.66;98715.13;4494477;31;35198;-65
2022/09/26 10:24:03;;;;;;;12.23;8.55;;;;;;;19.03;65.22;98718.03;4493193;31;32615;-66
2022/09/26 10:26:35;;;;;;;12.37;8.52;;;;;;;18.61;65.12;98711.50;4489068;31;32774;-65
2022/09/26 10:29:08;;;;;;;11.20;8.18;;;;;;;18.84;63.80;98711.38;4491310;31;35166;-65
2022/09/26 10:31:38;;;;;;;12.23;8.35;;;;;;;19.00;63.77;98716.53;4493124;31;32907;-65
2022/09/26 10:34:30;;;;;;;11.12;8.32;;;;;;;19.17;63.04;98721.72;4497140;31;33358;-65
2022/09/26 10:37:21;;;;;;;10.65;8.45;;;;;;;19.18;63.32;98732.34;4489585;31;33959;-65
2022/09/26 10:42:42;;;;;;;10.73;6.62;;;;;;;19.32;60.18;98727.87;4494620;31;33745;-65
2022/09/26 10:45:14;;;;;;;12.30;6.65;;;;;;;19.55;60.03;98735.81;4485757;31;33439;-66
2022/09/26 10:47:47;;;;;;;9.00;6.37;;;;;;;19.77;59.50;98713.03;4493317;31;34026;-65
2022/09/26 10:50:24;;;;;;;7.65;5.57;;;;;;;20.07;58.19;98709.25;4496126;31;33868;-63
2022/09/26 10:53:07;;;;;;;11.60;6.55;;;;;;;19.55;59.03;98714.09;4489984;31;33868;-63
2022/09/26 10:55:40;;;;;;;6.37;4.50;;;;;;;19.67;59.21;98720.66;4482836;31;32246;-63
2022/09/26 10:58:13;;;;;;;8.15;4.70;;;;;;;19.68;57.93;98719.66;4495685;31;34553;-63
2022/09/26 11:00:43;;;;;;;8.30;4.80;;;;;;;19.64;57.47;98731.94;4490855;31;33700;-63
2022/09/26 11:03:18;;;;;;;7.93;4.87;;;;;;;19.42;56.74;98728.41;4474207;31;32234;-63
2022/09/26 11:05:55;;;;;;;;;;;;;;;19.42;56.17;98727.53;4483320;31;32075;-63
2022/09/26 11:08:28;;;;;;;8.55;4.78;;;;;;;19.76;56.21;98733.06;4483740;31;34723;-63
2022/09/26 11:11:02;;;;;;;9.57;6.40;;;;;;;19.77;56.33;98734.75;4497347;31;33559;-63
2022/09/26 11:14:02;;;;;;;8.68;6.57;;;;;;;19.74;58.26;98732.44;4493174;31;35202;-63
2022/09/26 11:16:47;;;;;;;8.23;5.78;;;;;;;19.74;58.82;98743.31;4491417;31;33384;-65
2022/09/26 11:19:15;;;;;;;;;;;;;;;19.50;57.85;98735.56;4497707;31;35496;-64
2022/09/26 11:22:08;;;;;;;6.90;4.70;;;;;;;19.83;57.12;98735.81;4497308;31;35318;-64
2022/09/26 11:24:48;;;;;;;7.57;5.12;;;;;;;19.65;56.83;98732.78;4487661;31;34518;-64
2022/09/26 11:27:30;;;;;;;8.30;5.62;;;;;;;19.86;57.21;98729.16;4482228;31;31443;-63
2022/09/26 11:30:07;;;;;;;8.63;5.68;;;;;;;19.92;56.79;98734.63;4485209;31;33922;-63
2022/09/26 11:32:41;;;;;;;7.05;4.28;;;;;;;20.20;55.29;98726.44;4492500;31;35120;-63
2022/09/26 11:35:42;;;;;;;7.22;4.57;;;;;;;20.32;54.55;98717.69;4485053;31;32081;-63
2022/09/26 11:38:37;;;;;;;6.57;4.28;;;;;;;20.03;54.54;98719.66;4485753;31;34268;-64
2022/09/26 11:41:16;;;;;;;7.22;5.35;;;;;;;20.16;56.81;98727.03;4498466;31;33435;-64
2022/09/26 11:43:58;;;;;;;9.15;5.70;;;;;;;20.46;54.74;98719.44;4491241;31;33866;-64
2022/09/26 11:46:37;;;;;;;7.50;4.97;;;;;;;20.10;57.07;98717.81;4490747;31;33777;-63
2022/09/26 11:49:14;;;;;;;6.50;4.70;;;;;;;19.73;58.19;98719.87;4492738;31;32977;-63
2022/09/26 11:52:17;;;;;;;8.55;4.70;;;;;;;20.15;55.15;98711.78;4483229;31;34611;-65
2022/09/26 11:55:31;;;;;;;6.55;4.50;;;;;;;20.30;54.62;98727.94;4489820;31;34626;-62
2022/09/26 11:58:19;;;;;;;8.25;5.80;;;;;;;20.52;55.09;98723.28;4458319;31;35216;-62
2022/09/26 12:00:59;;;;;;;8.70;5.28;;;;;;;20.63;55.73;98718.06;4473799;31;31846;-63
2022/09/26 12:04:05;;;;;;;7.25;5.65;;;;;;;20.63;55.24;98717.22;4483573;31;33766;-62
2022/09/26 12:07:01;;;;;;;8.50;5.22;;;;;;;20.73;54.08;98708.69;4487517;31;35584;-62
2022/09/26 12:09:28;;;;;;;;;;;;;;;20.75;54.57;98712.03;4461208;31;33949;-63
2022/09/26 12:12:23;;;;;;;6.68;4.93;;;;;;;20.19;55.66;98704.91;4493265;31;35153;-62